Time;durP1;ratioP1;P1;durP2;ratioP2;P2;SDS_P1;SDS_P2;PMS_P1;PMS_P2;Temp;Humidity;BMP_temperature;BMP_pressure;BME280_temperature;BME280_humidity;BME280_pressure;Samples;Min_cycle;Max_cycle;Signal;HPM_P1;HPM_P2
2022/05/25 00:02:20;;;;;;;3.08;2.08;;;19.80;39.30;;;;;;5074027;28;20226;-33
2022/05/25 00:04:45;;;;;;;3.60;1.40;;;19.70;39.50;;;;;;5073742;28;20176;-33
2022/05/25 00:07:12;;;;;;;3.20;1.90;;;19.70;39.70;;;;;;5072159;28;20200;-33
2022/05/25 00:09:38;;;;;;;2.78;1.70;;;19.60;39.70;;;;;;5073786;28;20203;-33
2022/05/25 00:12:06;;;;;;;4.30;1.55;;;19.60;40.00;;;;;;5073933;28;20169;-33
2022/05/25 00:14:32;;;;;;;4.20;1.88;;;19.50;40.00;;;;;;5073567;28;20263;-33
2022/05/25 00:16:59;;;;;;;3.85;1.45;;;19.50;40.00;;;;;;5072038;28;20191;-33
2022/05/25 00:22:09;;;;;;;2.13;1.30;;;19.40;40.70;;;;;;5073552;28;20171;-33
2022/05/25 00:24:35;;;;;;;2.40;1.25;;;19.40;40.00;;;;;;5073383;28;20223;-33
2022/05/25 00:27:01;;;;;;;3.13;1.37;;;19.40;40.00;;;;;;5073008;28;20556;-33
2022/05/25 00:29:26;;;;;;;5.40;1.80;;;19.30;40.10;;;;;;5073532;28;20165;-33
2022/05/25 00:31:52;;;;;;;2.43;1.40;;;19.20;40.10;;;;;;5073570;28;20882;-33
2022/05/25 00:34:18;;;;;;;3.63;1.55;;;19.20;40.20;;;;;;5073395;28;20751;-33
2022/05/25 00:36:44;;;;;;;2.13;1.30;;;19.20;40.20;;;;;;5073254;28;20256;-33
2022/05/25 00:39:10;;;;;;;3.23;1.87;;;19.10;40.40;;;;;;5073125;28;20633;-33
2022/05/25 00:41:36;;;;;;;2.70;1.17;;;19.10;40.50;;;;;;5072933;28;20177;-33
2022/05/25 00:44:03;;;;;;;2.15;1.60;;;19.00;40.30;;;;;;5079131;28;20192;-33
2022/05/25 00:46:32;;;;;;;1.70;1.20;;;19.10;40.60;;;;;;5078897;28;20184;-33
2022/05/25 00:49:24;;;;;;;1.90;1.30;;;19.10;40.80;;;;;;5074821;28;20172;-33
2022/05/25 00:51:56;;;;;;;2.40;1.50;;;19.10;41.00;;;;;;5072477;28;20188;-33
2022/05/25 00:54:33;;;;;;;2.05;1.55;;;19.00;41.10;;;;;;5073052;28;20185;-33
2022/05/25 00:57:15;;;;;;;2.40;1.35;;;19.00;41.20;;;;;;5072829;28;20176;-33
2022/05/25 00:59:53;;;;;;;2.75;1.70;;;19.00;41.10;;;;;;5073071;28;20173;-33
2022/05/25 01:02:19;;;;;;;1.92;1.35;;;19.10;41.20;;;;;;5072788;28;20152;-33
2022/05/25 01:04:47;;;;;;;2.25;1.20;;;19.00;41.20;;;;;;5072685;28;20653;-33
2022/05/25 01:07:34;;;;;;;2.63;1.65;;;19.00;41.20;;;;;;5072571;28;20249;-33
2022/05/25 01:10:11;;;;;;;2.63;1.50;;;18.90;40.90;;;;;;5072120;28;20165;-33
2022/05/25 01:12:43;;;;;;;2.20;1.45;;;18.80;41.00;;;;;;5072733;28;20244;-33
2022/05/25 01:15:24;;;;;;;2.38;1.60;;;18.70;41.20;;;;;;5072630;28;20551;-33
2022/05/25 01:17:49;;;;;;;4.45;2.08;;;18.60;41.30;;;;;;5072097;28;20172;-33
2022/05/25 01:20:46;;;;;;;11.13;5.97;;;18.70;41.50;;;;;;5072591;28;20184;-33
2022/05/25 01:23:37;;;;;;;21.08;11.40;;;18.60;41.40;;;;;;5055868;28;20226;-33
2022/05/25 01:26:31;;;;;;;20.48;10.43;;;18.60;41.40;;;;;;5072402;28;20283;-33
2022/05/25 01:29:05;;;;;;;12.23;5.90;;;18.60;41.60;;;;;;5072284;28;20629;-33
2022/05/25 01:31:56;;;;;;;7.75;4.35;;;18.60;41.40;;;;;;5072373;28;20229;-33
2022/05/25 01:34:51;;;;;;;8.75;5.95;;;18.50;41.50;;;;;;5072241;28;20660;-33
2022/05/25 01:37:44;;;;;;;5.72;4.07;;;18.50;41.30;;;;;;5071941;28;20656;-33
2022/05/25 01:40:23;;;;;;;10.73;4.97;;;18.40;41.40;;;;;;5072198;28;20198;-33
2022/05/25 01:43:34;;;;;;;10.13;5.13;;;18.40;41.50;;;;;;5072206;28;20185;-33
2022/05/25 01:46:09;;;;;;;5.47;3.35;;;18.40;41.60;;;;;;5072140;28;20188;-33
2022/05/25 01:48:38;;;;;;;7.78;4.07;;;18.40;41.70;;;;;;5071943;28;20164;-33
2022/05/25 01:51:10;;;;;;;3.95;2.40;;;18.30;41.90;;;;;;5072147;28;20613;-33
2022/05/25 01:53:41;;;;;;;3.28;1.83;;;18.30;42.10;;;;;;5071927;28;20188;-33
2022/05/25 01:56:11;;;;;;;3.30;1.95;;;18.30;42.00;;;;;;5072099;28;20815;-33
2022/05/25 01:58:44;;;;;;;2.70;1.85;;;18.30;42.10;;;;;;5071907;28;20184;-33
2022/05/25 02:01:12;;;;;;;9.50;2.42;;;18.30;42.10;;;;;;5071996;28;20778;-33
2022/05/25 02:06:37;;;;;;;3.40;2.03;;;18.30;42.20;;;;;;5071993;28;20293;-33
2022/05/25 02:09:40;;;;;;;3.63;2.28;;;18.30;42.20;;;;;;5071621;28;20165;-33
2022/05/25 02:12:33;;;;;;;3.40;2.38;;;18.30;42.20;;;;;;5071752;28;20172;-33
2022/05/25 02:15:17;;;;;;;3.75;2.25;;;18.20;42.10;;;;;;5071879;28;20187;-33
2022/05/25 02:18:04;;;;;;;6.13;2.00;;;18.20;42.30;;;;;;5071563;28;20203;-33
2022/05/25 02:20:48;;;;;;;3.00;2.30;;;18.20;42.50;;;;;;5073923;28;20172;-33
2022/05/25 02:23:59;;;;;;;3.60;2.67;;;18.20;42.80;;;;;;5075497;28;20290;-33
2022/05/25 02:26:29;;;;;;;3.15;2.15;;;18.20;42.60;;;;;;5071511;28;20212;-33
2022/05/25 02:29:11;;;;;;;3.13;1.90;;;18.10;42.60;;;;;;5075299;28;20205;-33
2022/05/25 02:31:44;;;;;;;3.20;1.90;;;18.10;42.60;;;;;;5075492;28;20678;-33
2022/05/25 02:34:12;;;;;;;4.80;2.17;;;18.10;42.60;;;;;;5075309;28;20684;-33
2022/05/25 02:36:39;;;;;;;2.00;1.80;;;18.10;42.40;;;;;;5075606;28;20256;-33
2022/05/25 02:39:07;;;;;;;3.85;1.73;;;18.10;42.50;;;;;;5075166;28;20200;-33
2022/05/25 02:41:35;;;;;;;2.65;1.60;;;18.10;42.60;;;;;;5074652;28;20177;-33
2022/05/25 02:44:03;;;;;;;2.83;2.17;;;18.10;42.50;;;;;;5074625;28;20552;-33
2022/05/25 02:46:29;;;;;;;2.25;1.58;;;18.10;42.80;;;;;;5075027;28;20200;-33
2022/05/25 02:48:55;;;;;;;2.42;1.98;;;18.10;42.90;;;;;;5074975;28;20666;-33
2022/05/25 02:51:21;;;;;;;2.70;1.90;;;18.10;42.90;;;;;;5075058;28;20177;-33
2022/05/25 02:53:47;;;;;;;2.80;1.80;;;18.00;43.00;;;;;;5075053;28;20437;-33
2022/05/25 02:56:13;;;;;;;1.83;1.30;;;17.90;43.10;;;;;;5074981;28;20411;-34
2022/05/25 02:58:39;;;;;;;2.80;1.80;;;17.90;43.20;;;;;;5075049;28;20187;-33
2022/05/25 03:01:05;;;;;;;3.10;1.80;;;17.90;43.20;;;;;;5075005;28;20161;-34
2022/05/25 03:03:36;;;;;;;2.53;1.40;;;18.00;43.30;;;;;;5074790;28;20435;-33
2022/05/25 03:06:03;;;;;;;2.55;1.70;;;18.00;43.30;;;;;;5074918;28;20200;-33
2022/05/25 03:08:29;;;;;;;2.20;1.60;;;18.00;43.10;;;;;;5074630;28;20200;-34
2022/05/25 03:10:55;;;;;;;2.77;2.20;;;18.00;43.00;;;;;;5074802;28;20212;-34
2022/05/25 03:13:21;;;;;;;4.00;2.43;;;18.00;43.00;;;;;;5074709;28;20839;-33
2022/05/25 03:15:47;;;;;;;2.97;1.87;;;18.10;43.10;;;;;;5074663;28;20266;-33
2022/05/25 03:18:12;;;;;;;1.90;1.67;;;18.10;43.10;;;;;;5074522;28;20195;-34
2022/05/25 03:20:38;;;;;;;2.57;2.03;;;18.10;43.10;;;;;;5074680;28;20195;-33
2022/05/25 03:23:03;;;;;;;2.87;2.17;;;18.00;43.00;;;;;;5074431;28;20258;-33
2022/05/25 03:25:29;;;;;;;2.93;2.10;;;18.00;43.20;;;;;;5074617;28;20160;-34
2022/05/25 03:27:55;;;;;;;3.03;1.73;;;18.00;43.40;;;;;;5074252;28;20196;-34
2022/05/25 03:30:22;;;;;;;2.70;1.90;;;18.00;43.40;;;;;;5074368;28;21101;-33
2022/05/25 03:32:48;;;;;;;2.22;1.80;;;18.00;44.00;;;;;;5073396;28;20188;-33
2022/05/25 03:35:15;;;;;;;3.80;1.67;;;18.00;43.50;;;;;;5074289;28;20572;-33
2022/05/25 03:37:40;;;;;;;2.50;1.58;;;18.00;43.70;;;;;;5073751;28;20814;-33
2022/05/25 03:40:09;;;;;;;3.33;2.20;;;18.00;43.80;;;;;;5074271;28;20169;-34
2022/05/25 03:42:36;;;;;;;2.80;1.77;;;18.10;43.80;;;;;;5072860;28;20245;-33
2022/05/25 03:45:04;;;;;;;2.88;2.10;;;18.10;43.50;;;;;;5074078;28;20199;-34
2022/05/25 03:47:33;;;;;;;3.05;2.00;;;18.00;43.40;;;;;;5074125;28;20553;-33
2022/05/25 03:49:59;;;;;;;2.67;2.47;;;18.10;43.70;;;;;;5074317;28;20201;-34
2022/05/25 03:52:25;;;;;;;3.00;2.30;;;18.10;43.60;;;;;;5074011;28;20169;-34
2022/05/25 03:54:51;;;;;;;4.35;1.92;;;18.10;43.40;;;;;;5073710;28;20172;-33
2022/05/25 03:57:17;;;;;;;2.88;2.15;;;18.20;43.30;;;;;;5073602;28;20171;-33
2022/05/25 03:59:43;;;;;;;2.03;1.50;;;18.20;43.10;;;;;;5074031;28;20172;-33
2022/05/25 04:02:09;;;;;;;2.50;1.67;;;18.30;44.00;;;;;;5074063;28;20168;-34
2022/05/25 04:04:34;;;;;;;3.60;2.23;;;18.30;43.50;;;;;;5073831;28;20682;-34
2022/05/25 04:07:00;;;;;;;2.13;1.60;;;18.30;43.70;;;;;;5073601;28;20445;-33
2022/05/25 04:09:26;;;;;;;3.40;1.80;;;18.30;43.90;;;;;;5073894;28;20192;-33
2022/05/25 04:11:52;;;;;;;3.63;1.90;;;18.30;43.90;;;;;;5073665;28;20407;-33
2022/05/25 04:14:17;;;;;;;8.33;2.10;;;18.40;44.00;;;;;;5073483;28;20329;-33
2022/05/25 04:16:45;;;;;;;4.40;2.03;;;18.40;43.90;;;;;;5073502;28;20180;-33
2022/05/25 04:19:11;;;;;;;4.70;1.98;;;18.40;43.90;;;;;;5073510;28;20175;-33
2022/05/25 04:21:37;;;;;;;2.42;1.67;;;18.50;44.00;;;;;;5073517;28;20211;-33
2022/05/25 04:24:03;;;;;;;2.10;1.20;;;18.50;44.10;;;;;;5073349;28;20220;-34
2022/05/25 04:26:30;;;;;;;2.70;2.00;;;18.60;44.90;;;;;;5073404;28;20711;-33
2022/05/25 04:28:57;;;;;;;2.22;1.70;;;18.70;44.30;;;;;;5073266;28;20586;-33
2022/05/25 04:31:23;;;;;;;2.38;1.95;;;18.80;44.40;;;;;;5073292;28;20177;-34
2022/05/25 04:33:48;;;;;;;3.97;1.87;;;18.80;44.40;;;;;;5073358;28;20291;-33
2022/05/25 04:36:15;;;;;;;3.00;1.77;;;18.90;45.20;;;;;;5073291;28;20179;-33
2022/05/25 04:38:41;;;;;;;2.70;1.70;;;18.90;44.50;;;;;;5072997;28;20176;-33
2022/05/25 04:41:06;;;;;;;2.47;2.03;;;19.00;44.10;;;;;;5073223;28;20172;-33
2022/05/25 04:43:32;;;;;;;2.37;1.60;;;19.10;44.10;;;;;;5072967;28;20426;-33
2022/05/25 04:46:03;;;;;;;4.90;1.80;;;19.20;43.80;;;;;;5073052;28;20403;-33
2022/05/25 04:48:29;;;;;;;3.35;2.08;;;19.30;43.70;;;;;;5073250;28;20643;-33
2022/05/25 04:50:56;;;;;;;2.50;1.40;;;19.40;43.60;;;;;;5073369;28;20172;-34
2022/05/25 04:53:23;;;;;;;2.25;1.55;;;19.50;43.30;;;;;;5072927;28;20469;-33
2022/05/25 04:58:37;;;;;;;3.42;2.00;;;19.70;42.90;;;;;;5075274;28;20176;-35
2022/05/25 05:01:04;;;;;;;5.47;1.60;;;19.70;42.60;;;;;;5074287;28;20646;-35
2022/05/25 05:03:30;;;;;;;2.95;2.42;;;19.90;42.70;;;;;;5072884;28;20192;-35
2022/05/25 05:05:57;;;;;;;3.97;2.07;;;19.90;42.50;;;;;;5072516;28;20168;-35
2022/05/25 05:08:23;;;;;;;2.17;1.60;;;20.00;42.20;;;;;;5072202;28;20897;-35
2022/05/25 05:10:50;;;;;;;3.40;1.90;;;20.10;42.00;;;;;;5072619;28;20240;-35
2022/05/25 05:13:16;;;;;;;3.97;1.83;;;20.10;41.60;;;;;;5072417;28;20181;-35
2022/05/25 05:15:45;;;;;;;7.20;2.40;;;20.20;41.50;;;;;;5072501;28;20703;-35
2022/05/25 05:18:11;;;;;;;11.70;2.20;;;20.30;41.40;;;;;;5072184;28;20879;-35
2022/05/25 05:20:37;;;;;;;2.40;1.60;;;20.30;41.10;;;;;;5072482;28;20168;-35
2022/05/25 05:23:05;;;;;;;4.88;1.90;;;20.40;41.00;;;;;;5072350;28;20231;-35
2022/05/25 05:25:32;;;;;;;15.43;2.17;;;20.50;41.00;;;;;;5070789;28;20176;-35
2022/05/25 05:28:15;;;;;;;4.95;1.98;;;20.60;40.60;;;;;;5072353;28;20517;-33
2022/05/25 05:30:50;;;;;;;2.97;1.88;;;20.80;40.30;;;;;;5072690;28;20157;-33
2022/05/25 05:33:16;;;;;;;2.50;1.80;;;20.80;40.00;;;;;;5072575;28;20229;-34
2022/05/25 05:35:45;;;;;;;2.50;2.07;;;20.90;39.70;;;;;;5072232;28;20172;-34
2022/05/25 05:38:12;;;;;;;3.78;2.08;;;20.90;39.50;;;;;;5071914;28;20648;-33
2022/05/25 05:40:38;;;;;;;3.88;1.58;;;20.90;39.00;;;;;;5072182;28;20173;-33
2022/05/25 05:43:06;;;;;;;3.42;1.63;;;20.90;38.50;;;;;;5071940;28;20186;-33
2022/05/25 05:45:38;;;;;;;2.42;1.48;;;20.90;38.70;;;;;;5072295;28;20184;-34
2022/05/25 05:48:10;;;;;;;2.80;2.00;;;20.90;38.70;;;;;;5071841;28;20655;-33
2022/05/25 05:50:40;;;;;;;2.03;1.63;;;20.90;38.80;;;;;;5072233;28;20176;-33
2022/05/25 05:53:08;;;;;;;2.40;1.67;;;20.90;38.60;;;;;;5071970;28;20188;-34
2022/05/25 05:55:35;;;;;;;8.35;1.83;;;20.90;38.60;;;;;;5075272;28;20173;-33
2022/05/25 05:58:00;;;;;;;3.03;1.60;;;21.00;38.80;;;;;;5078752;28;20222;-34
2022/05/25 06:00:26;;;;;;;2.47;1.70;;;20.90;38.70;;;;;;5078912;28;20184;-34
2022/05/25 06:02:52;;;;;;;2.17;1.50;;;20.90;38.10;;;;;;5078420;28;20715;-33
2022/05/25 06:05:18;;;;;;;2.30;1.70;;;20.90;38.10;;;;;;5079075;28;20176;-34
2022/05/25 06:07:43;;;;;;;2.80;1.20;;;20.90;38.20;;;;;;5078290;28;20453;-33
2022/05/25 06:10:10;;;;;;;2.03;1.47;;;20.90;38.20;;;;;;5078552;28;20689;-33
2022/05/25 06:12:36;;;;;;;2.33;1.30;;;20.90;38.20;;;;;;5078440;28;20715;-34
2022/05/25 06:19:25;;;;;;;2.87;1.60;;;20.90;38.10;;;;;;5078437;28;20259;-34
2022/05/25 06:20:35;;;;;;;2.25;1.30;;;20.90;38.30;;;;;;5078599;28;20757;-34
2022/05/25 06:23:02;;;;;;;2.92;1.60;;;21.00;38.20;;;;;;5078208;28;20204;-34
2022/05/25 06:25:28;;;;;;;3.25;1.35;;;21.00;38.20;;;;;;5078382;28;20169;-33
2022/05/25 06:27:54;;;;;;;3.53;1.20;;;21.00;38.10;;;;;;5078022;28;20200;-33
2022/05/25 06:30:20;;;;;;;2.15;1.23;;;21.00;38.10;;;;;;5078228;28;20515;-33
2022/05/25 06:32:45;;;;;;;4.53;1.17;;;21.00;37.90;;;;;;5078233;28;20202;-34
2022/05/25 06:35:11;;;;;;;3.50;2.97;;;21.00;37.80;;;;;;5078272;28;20164;-34
2022/05/25 06:37:37;;;;;;;2.28;1.60;;;20.90;37.70;;;;;;5078088;28;20638;-34
2022/05/25 06:40:04;;;;;;;1.63;0.80;;;21.00;37.90;;;;;;5078177;28;20176;-34
2022/05/25 06:42:31;;;;;;;4.60;1.27;;;21.00;37.90;;;;;;5078349;28;20214;-34
2022/05/25 06:44:57;;;;;;;3.03;1.20;;;21.00;37.90;;;;;;5077638;28;20528;-34
2022/05/25 06:47:22;;;;;;;3.93;1.07;;;21.00;37.50;;;;;;5077153;28;20267;-33
2022/05/25 06:49:52;;;;;;;4.60;1.20;;;21.00;37.70;;;;;;5078265;28;20180;-33
2022/05/25 06:52:18;;;;;;;2.72;1.10;;;21.00;37.60;;;;;;5078135;28;20176;-33
2022/05/25 06:54:44;;;;;;;2.07;1.20;;;20.90;37.70;;;;;;5077994;28;20277;-33
2022/05/25 06:57:10;;;;;;;2.53;1.20;;;21.00;37.60;;;;;;5078043;28;20438;-33
2022/05/25 06:59:36;;;;;;;3.43;1.53;;;21.00;38.00;;;;;;5078010;28;20601;-34
2022/05/25 07:02:02;;;;;;;2.27;1.57;;;21.00;37.90;;;;;;5078068;28;20536;-34
2022/05/25 07:04:28;;;;;;;2.47;1.20;;;21.00;37.40;;;;;;5077993;28;20759;-33
2022/05/25 07:06:54;;;;;;;3.80;1.40;;;21.00;37.20;;;;;;5075413;28;20245;-34
2022/05/25 07:09:20;;;;;;;2.23;1.00;;;21.00;37.30;;;;;;5074959;28;20176;-33
2022/05/25 07:11:50;;;;;;;2.80;1.37;;;21.00;37.60;;;;;;5074777;28;20169;-34
2022/05/25 07:14:16;;;;;;;5.07;2.95;;;21.00;38.40;;;;;;5074779;28;20188;-34
2022/05/25 07:16:42;;;;;;;2.17;1.10;;;21.00;37.20;;;;;;5074826;28;20177;-34
2022/05/25 07:19:08;;;;;;;2.37;1.20;;;21.00;37.40;;;;;;5074624;28;20983;-34
2022/05/25 07:21:34;;;;;;;3.90;1.40;;;21.00;37.60;;;;;;5074782;28;20223;-35
2022/05/25 07:24:01;;;;;;;3.80;1.60;;;21.00;37.20;;;;;;5074370;28;20224;-34
2022/05/25 07:26:28;;;;;;;6.03;1.47;;;21.00;37.20;;;;;;5074372;28;20200;-34
2022/05/25 07:28:54;;;;;;;2.10;1.23;;;19.90;36.90;;;;;;5074468;28;20409;-35
2022/05/25 07:31:22;;;;;;;3.65;2.00;;;21.00;37.20;;;;;;5074693;28;20222;-34
2022/05/25 07:33:54;;;;;;;2.42;1.33;;;21.00;37.30;;;;;;5074415;28;20729;-35
2022/05/25 07:36:21;;;;;;;3.80;1.23;;;21.00;37.50;;;;;;5074422;28;20244;-34
2022/05/25 07:38:49;;;;;;;2.92;1.20;;;21.00;37.20;;;;;;5074172;28;20173;-34
2022/05/25 07:41:17;;;;;;;2.45;1.60;;;21.00;37.30;;;;;;5074285;28;20165;-34
2022/05/25 07:43:44;;;;;;;1.70;1.10;;;21.00;37.50;;;;;;5072442;28;20791;-40
2022/05/25 07:46:10;;;;;;;2.38;1.30;;;21.00;37.50;;;;;;5073906;28;20200;-33
2022/05/25 07:48:36;;;;;;;5.07;1.47;;;20.90;38.20;;;;;;5072682;28;20319;-34
2022/05/25 07:51:03;;;;;;;3.30;1.30;;;20.80;38.70;;;;;;5074034;28;20914;-33
2022/05/25 07:56:15;;;;;;;2.40;1.23;;;20.80;39.80;;;;;;5074299;28;21083;-34
2022/05/25 07:58:41;;;;;;;1.83;1.30;;;20.70;40.20;;;;;;5073546;28;20590;-33
2022/05/25 08:01:13;;;;;;;2.33;1.47;;;20.80;40.60;;;;;;5074112;28;20177;-34
2022/05/25 08:06:25;;;;;;;3.20;1.35;;;20.80;40.90;;;;;;5073982;28;20247;-34
2022/05/25 08:08:51;;;;;;;3.28;1.30;;;20.80;40.60;;;;;;5073647;28;20255;-33
2022/05/25 08:11:20;;;;;;;1.70;1.25;;;20.80;40.30;;;;;;5073612;28;20176;-34
2022/05/25 08:13:50;;;;;;;2.30;1.30;;;20.80;40.70;;;;;;5073365;28;20196;-33
2022/05/25 08:16:16;;;;;;;3.25;1.52;;;20.80;41.20;;;;;;5073828;28;20219;-34
2022/05/25 08:18:42;;;;;;;3.47;1.70;;;20.80;40.70;;;;;;5072693;28;20667;-33
2022/05/25 08:21:08;;;;;;;2.47;1.73;;;20.90;40.80;;;;;;5073487;28;20490;-33
2022/05/25 08:23:34;;;;;;;2.95;1.35;;;21.00;40.40;;;;;;5073288;28;20489;-34
2022/05/25 08:26:00;;;;;;;3.35;1.48;;;21.00;40.30;;;;;;5073180;28;20169;-34
2022/05/25 08:28:26;;;;;;;1.73;1.15;;;21.00;40.20;;;;;;5073057;28;20165;-34
2022/05/25 08:30:52;;;;;;;1.75;1.05;;;21.00;39.70;;;;;;5073237;28;20226;-33
2022/05/25 08:33:20;;;;;;;2.37;1.77;;;21.00;40.60;;;;;;5073104;28;20211;-33
2022/05/25 08:35:47;;;;;;;3.80;1.40;;;21.00;40.00;;;;;;5073069;28;20437;-34
2022/05/25 08:38:13;;;;;;;3.23;1.77;;;21.00;39.40;;;;;;5071531;28;20492;-34
2022/05/25 08:40:40;;;;;;;2.17;1.30;;;21.00;40.20;;;;;;5073283;28;20461;-33
2022/05/25 08:43:22;;;;;;;2.50;1.53;;;21.00;40.00;;;;;;5072926;28;20470;-34
2022/05/25 08:45:52;;;;;;;2.55;1.35;;;21.10;40.00;;;;;;5073006;28;20402;-35
2022/05/25 08:48:20;;;;;;;2.75;1.55;;;21.10;40.00;;;;;;5071640;28;20271;-34
2022/05/25 08:50:51;;;;;;;2.23;1.13;;;21.20;39.70;;;;;;5072881;28;20169;-34
2022/05/25 08:53:18;;;;;;;2.10;1.38;;;21.20;39.30;;;;;;5071556;28;20506;-34
2022/05/25 08:55:56;;;;;;;2.65;1.42;;;21.20;38.70;;;;;;5072549;28;20191;-34
2022/05/25 08:58:27;;;;;;;2.30;1.17;;;21.20;38.90;;;;;;5072338;28;20171;-34
2022/05/25 09:00:54;;;;;;;4.65;1.50;;;21.30;38.50;;;;;;5072678;28;20222;-34
2022/05/25 09:03:38;;;;;;;2.33;1.70;;;21.30;37.80;;;;;;5072595;28;20748;-34
2022/05/25 09:06:31;;;;;;;2.70;1.08;;;21.30;38.10;;;;;;5072766;28;20464;-33
2022/05/25 09:09:03;;;;;;;1.65;0.90;;;21.20;37.00;;;;;;5072413;28;20172;-35
2022/05/25 09:11:51;;;;;;;2.97;1.58;;;21.20;38.00;;;;;;5072649;28;20165;-33
2022/05/25 09:14:29;;;;;;;3.05;1.33;;;21.20;38.50;;;;;;5072259;28;20193;-33
2022/05/25 09:16:57;;;;;;;1.80;1.10;;;21.20;37.60;;;;;;5072273;28;20196;-35
2022/05/25 09:19:37;;;;;;;1.92;1.25;;;21.20;37.70;;;;;;5072440;28;20192;-34
2022/05/25 09:22:06;;;;;;;2.70;1.65;;;21.20;38.10;;;;;;5072414;28;20635;-34
2022/05/25 09:24:34;;;;;;;1.70;1.10;;;21.40;38.50;;;;;;5072218;28;20213;-34
2022/05/25 09:27:01;;;;;;;2.07;1.37;;;21.40;37.50;;;;;;5071878;28;20545;-34
2022/05/25 09:29:27;;;;;;;3.40;0.77;;;21.50;37.60;;;;;;5070113;28;20464;-34
2022/05/25 09:32:11;;;;;;;2.60;1.00;;;21.50;37.30;;;;;;5070533;28;20246;-34
2022/05/25 09:34:44;;;;;;;2.20;1.23;;;21.60;36.50;;;;;;5072167;28;20204;-33
2022/05/25 09:37:21;;;;;;;3.78;1.10;;;21.60;36.80;;;;;;5071896;28;20392;-34
2022/05/25 09:39:51;;;;;;;2.13;1.13;;;21.60;37.00;;;;;;5072074;28;20218;-34
2022/05/25 09:42:20;;;;;;;2.05;0.82;;;21.70;36.90;;;;;;5072705;28;20529;-34
2022/05/25 09:44:52;;;;;;;3.97;1.02;;;21.70;36.70;;;;;;5072019;28;20279;-34
2022/05/25 09:47:41;;;;;;;2.28;0.90;;;21.80;36.80;;;;;;5071910;28;20204;-34
2022/05/25 09:50:13;;;;;;;1.60;0.90;;;21.90;35.50;;;;;;5072005;28;20165;-33
2022/05/25 09:52:46;;;;;;;2.70;1.30;;;21.90;35.40;;;;;;5071985;28;20431;-34
2022/05/25 09:55:30;;;;;;;2.63;1.13;;;21.90;35.50;;;;;;5072242;28;20383;-34
2022/05/25 09:58:10;;;;;;;1.73;0.90;;;22.00;34.80;;;;;;5071679;28;20927;-34
2022/05/25 10:00:36;;;;;;;3.80;0.97;;;22.10;35.50;;;;;;5071925;28;20387;-34
2022/05/25 10:03:10;;;;;;;1.77;0.77;;;22.10;36.10;;;;;;5071850;28;20430;-34
2022/05/25 10:05:54;;;;;;;2.20;0.90;;;22.20;35.30;;;;;;5071844;28;20182;-35
2022/05/25 10:08:36;;;;;;;4.10;1.33;;;22.40;35.80;;;;;;5071538;28;20438;-35
2022/05/25 10:11:42;;;;;;;1.90;1.03;;;22.50;35.40;;;;;;5071619;28;20410;-34
2022/05/25 10:14:29;;;;;;;1.73;1.00;;;22.70;34.40;;;;;;5023566;28;20491;-35
2022/05/25 10:17:03;;;;;;;3.10;1.53;;;22.90;35.00;;;;;;5029294;28;20500;-35
2022/05/25 10:19:33;;;;;;;3.90;1.20;;;23.10;35.00;;;;;;5029380;28;20591;-34
2022/05/25 10:21:59;;;;;;;2.63;1.40;;;23.20;33.40;;;;;;5029487;28;20422;-35
2022/05/25 10:24:40;;;;;;;2.00;1.10;;;23.30;32.60;;;;;;5029387;28;20444;-34
2022/05/25 10:27:27;;;;;;;2.10;1.20;;;23.30;32.90;;;;;;5028947;28;21052;-34
2022/05/25 10:38:27;;;;;;;2.90;1.20;;;24.10;33.40;;;;;;5029411;28;20416;-34
2022/05/25 10:40:55;;;;;;;2.10;1.00;;;24.20;31.40;;;;;;5013901;28;20412;-35
2022/05/25 10:43:27;;;;;;;2.00;1.00;;;24.30;31.30;;;;;;5032529;28;20428;-32
2022/05/25 10:45:54;;;;;;;1.80;1.30;;;24.30;32.00;;;;;;5071462;28;20414;-32
2022/05/25 10:48:47;;;;;;;2.10;0.90;;;24.20;31.70;;;;;;5074838;28;20454;-32
2022/05/25 10:51:20;;;;;;;2.23;1.10;;;24.30;30.90;;;;;;5075225;28;20375;-32
2022/05/25 10:57:07;;;;;;;4.10;1.87;;;24.30;31.40;;;;;;5075202;28;20402;-32
2022/05/25 10:59:50;;;;;;;6.50;1.83;;;24.50;32.10;;;;;;5075139;28;20434;-32
2022/05/25 11:02:49;;;;;;;5.03;1.03;;;24.60;32.20;;;;;;5075010;28;20387;-32
2022/05/25 11:05:46;;;;;;;3.97;1.50;;;25.00;31.60;;;;;;5074951;28;20430;-32
2022/05/25 11:08:41;;;;;;;2.33;1.40;;;25.20;30.80;;;;;;5074913;28;20507;-32
2022/05/25 11:11:34;;;;;;;1.80;1.20;;;25.40;30.60;;;;;;5073318;28;20422;-32
2022/05/25 11:14:33;;;;;;;1.70;0.87;;;25.50;30.50;;;;;;5074874;28;20434;-31
2022/05/25 11:17:16;;;;;;;3.03;1.20;;;25.70;30.80;;;;;;5074334;28;20419;-32
2022/05/25 11:20:06;;;;;;;5.40;1.37;;;25.90;30.20;;;;;;5074769;28;20415;-32
2022/05/25 11:22:36;;;;;;;1.90;1.20;;;26.10;29.70;;;;;;5074391;28;20748;-33
2022/05/25 11:25:19;;;;;;;1.90;0.90;;;26.20;28.50;;;;;;5074980;28;20404;-32
2022/05/25 11:27:48;;;;;;;2.17;1.80;;;26.20;27.00;;;;;;5074371;28;20446;-32
2022/05/25 11:30:35;;;;;;;4.13;1.10;;;26.10;27.70;;;;;;5074613;28;20815;-32
2022/05/25 11:33:13;;;;;;;2.43;0.90;;;26.10;28.90;;;;;;5074436;28;20414;-32
2022/05/25 11:35:43;;;;;;;4.30;1.13;;;26.10;27.20;;;;;;5074379;28;20375;-32
2022/05/25 11:38:32;;;;;;;2.47;1.40;;;26.10;27.80;;;;;;5074196;28;20771;-32
2022/05/25 11:41:35;;;;;;;5.80;1.73;;;26.00;27.70;;;;;;5074563;28;20435;-32
2022/05/25 11:44:16;;;;;;;1.70;0.97;;;26.10;27.30;;;;;;5074116;28;20422;-33
2022/05/25 11:46:47;;;;;;;2.17;0.80;;;26.20;27.90;;;;;;5074136;28;20473;-32
2022/05/25 11:49:21;;;;;;;3.83;1.23;;;26.50;27.60;;;;;;5073998;28;20399;-33
2022/05/25 11:52:08;;;;;;;3.20;1.30;;;26.50;26.20;;;;;;5073845;28;20401;-32
2022/05/25 11:54:34;;;;;;;2.40;1.53;;;26.50;27.00;;;;;;5073858;28;20465;-33
2022/05/25 11:57:15;;;;;;;4.83;1.90;;;26.60;26.10;;;;;;5074069;28;20445;-32
2022/05/25 12:00:05;;;;;;;3.20;1.40;;;26.60;27.40;;;;;;5074207;28;20180;-32
2022/05/25 12:02:59;;;;;;;1.93;1.30;;;26.50;26.20;;;;;;5073842;28;20467;-33
2022/05/25 12:05:46;;;;;;;2.40;1.43;;;26.20;27.20;;;;;;5073873;28;20417;-32
2022/05/25 12:08:24;;;;;;;2.13;1.47;;;26.10;28.30;;;;;;5073476;28;20457;-32
2022/05/25 12:11:30;;;;;;;2.40;1.40;;;26.30;27.70;;;;;;5073672;28;20490;-32
2022/05/25 12:14:20;;;;;;;3.07;1.87;;;26.50;27.40;;;;;;5074097;28;20475;-32
2022/05/25 12:16:48;;;;;;;2.40;1.37;;;26.50;26.20;;;;;;5073485;28;20395;-32
2022/05/25 12:19:19;;;;;;;2.20;1.27;;;26.50;27.90;;;;;;5073441;28;20971;-32
2022/05/25 12:21:49;;;;;;;2.10;1.20;;;26.60;25.90;;;;;;5073465;28;20391;-32
2022/05/25 12:24:21;;;;;;;2.63;2.13;;;26.80;25.70;;;;;;5073339;28;20537;-32
2022/05/25 12:26:46;;;;;;;1.50;0.83;;;26.90;23.30;;;;;;5073564;28;20836;-32
2022/05/25 12:29:26;;;;;;;2.27;0.97;;;27.00;24.30;;;;;;5077370;28;20395;-32
2022/05/25 12:31:57;;;;;;;4.80;1.90;;;27.10;24.80;;;;;;5080168;28;20191;-32
2022/05/25 12:34:30;;;;;;;2.90;2.20;;;27.40;25.20;;;;;;5075696;28;20425;-32
2022/05/25 12:36:57;;;;;;;3.97;1.30;;;27.60;25.30;;;;;;5073137;28;20407;-32
2022/05/25 12:39:42;;;;;;;2.43;1.00;;;27.80;24.20;;;;;;5072169;28;20535;-32
2022/05/25 12:42:22;;;;;;;2.33;1.30;;;28.00;23.60;;;;;;5073107;28;20489;-32
2022/05/25 12:50:36;;;;;;;2.57;1.20;;;28.30;25.10;;;;;;5073239;28;20429;-32
2022/05/25 12:53:24;;;;;;;2.00;0.83;;;28.40;23.70;;;;;;5072814;28;20453;-32
2022/05/25 12:56:30;;;;;;;2.03;0.90;;;28.20;23.40;;;;;;5072871;28;20449;-32
2022/05/25 12:59:11;;;;;;;2.13;0.80;;;28.20;23.90;;;;;;5072278;28;20468;-32
2022/05/25 13:01:40;;;;;;;3.67;0.87;;;28.20;24.60;;;;;;5072937;28;20480;-32
2022/05/25 13:04:09;;;;;;;2.47;1.40;;;28.30;22.90;;;;;;5072500;28;20518;-32
2022/05/25 13:06:38;;;;;;;2.10;0.83;;;28.50;21.90;;;;;;5072530;28;20476;-32
2022/05/25 13:09:07;;;;;;;3.47;0.90;;;28.30;20.90;;;;;;5072293;28;20842;-32
2022/05/25 13:11:36;;;;;;;2.30;0.93;;;28.30;22.90;;;;;;5072528;28;20404;-32
2022/05/25 13:14:16;;;;;;;2.27;1.00;;;28.30;21.30;;;;;;5072610;28;20438;-32
2022/05/25 13:16:42;;;;;;;1.90;0.90;;;28.40;21.80;;;;;;5072887;28;20752;-32
2022/05/25 13:19:18;;;;;;;2.73;1.10;;;28.40;20.70;;;;;;5072239;28;20433;-34
2022/05/25 13:21:58;;;;;;;1.60;0.80;;;28.50;20.80;;;;;;5072450;28;20160;-34
2022/05/25 13:24:32;;;;;;;3.70;1.50;;;28.60;21.50;;;;;;5072182;28;20456;-35
2022/05/25 13:27:18;;;;;;;2.10;1.53;;;28.70;22.90;;;;;;5071974;28;20446;-35
2022/05/25 13:30:24;;;;;;;1.97;1.13;;;28.70;20.40;;;;;;5072283;28;20388;-35
2022/05/25 13:32:56;;;;;;;2.90;2.10;;;28.60;20.50;;;;;;5072079;28;20747;-34
2022/05/25 13:35:21;;;;;;;2.23;1.23;;;28.30;21.20;;;;;;5072170;28;20490;-35
2022/05/25 13:37:52;;;;;;;4.97;1.13;;;28.20;21.90;;;;;;5071960;28;20480;-35
2022/05/25 13:40:21;;;;;;;1.73;1.20;;;28.20;22.90;;;;;;5072176;28;20168;-32
2022/05/25 13:42:49;;;;;;;1.70;0.90;;;28.20;23.00;;;;;;5072029;28;20494;-32
2022/05/25 13:45:27;;;;;;;3.97;0.80;;;28.30;23.50;;;;;;5072623;28;20399;-32
2022/05/25 13:47:56;;;;;;;1.50;0.80;;;28.40;23.00;;;;;;5071814;28;20482;-32